createdAt,value
2022-09-13T00:00:10.211Z,10.74
2022-09-13T00:02:38.162Z,10.75
2022-09-13T00:05:05.756Z,10.91
2022-09-13T00:07:32.821Z,10.87
2022-09-13T00:10:00.147Z,10.86
2022-09-13T00:12:27.301Z,10.85
2022-09-13T00:14:55.232Z,10.82
2022-09-13T00:17:26.166Z,10.75
2022-09-13T00:19:53.418Z,10.76
2022-09-13T00:22:20.681Z,10.69
2022-09-13T00:24:47.816Z,10.61
2022-09-13T00:27:15.183Z,10.50
2022-09-13T00:29:43.318Z,10.47
2022-09-13T00:32:10.519Z,10.49
2022-09-13T00:34:38.116Z,10.51
2022-09-13T00:37:05.558Z,10.54
2022-09-13T00:39:33.392Z,10.54
2022-09-13T00:42:00.494Z,10.45
2022-09-13T00:44:48.240Z,10.61
2022-09-13T00:47:21.266Z,10.54
2022-09-13T00:49:51.111Z,10.61
2022-09-13T00:52:21.055Z,10.55
2022-09-13T00:54:56.374Z,10.51
2022-09-13T00:57:25.395Z,10.58
2022-09-13T01:00:13.641Z,10.52
2022-09-13T01:02:45.026Z,10.54
2022-09-13T01:05:13.475Z,10.54
2022-09-13T01:07:41.909Z,10.54
2022-09-13T01:10:09.440Z,10.51
2022-09-13T01:12:48.616Z,10.52
2022-09-13T01:15:16.200Z,10.50
2022-09-13T01:17:44.187Z,10.39
2022-09-13T01:20:12.950Z,10.41
2022-09-13T01:23:06.651Z,10.30
2022-09-13T01:25:56.796Z,10.27
2022-09-13T01:28:42.929Z,10.27
2022-09-13T01:31:19.069Z,10.15
2022-09-13T01:33:53.075Z,10.16
2022-09-13T01:36:21.125Z,10.12
2022-09-13T01:39:03.361Z,10.02
2022-09-13T01:42:10.117Z,10.00
2022-09-13T01:45:06.479Z,9.98
2022-09-13T01:47:39.119Z,9.95
2022-09-13T01:50:51.145Z,9.95
2022-09-13T01:53:49.498Z,9.92
2022-09-13T01:56:49.036Z,9.77
2022-09-13T01:59:29.081Z,9.96
2022-09-13T02:02:19.826Z,9.96
2022-09-13T02:04:54.381Z,9.96
2022-09-13T02:07:36.657Z,9.99
2022-09-13T02:10:12.199Z,9.89
2022-09-13T02:12:42.938Z,9.88
2022-09-13T02:15:10.134Z,10.01
2022-09-13T02:17:41.321Z,9.86
2022-09-13T02:20:33.161Z,9.90
2022-09-13T02:23:04.926Z,9.88
2022-09-13T02:25:36.563Z,9.73
2022-09-13T02:28:08.374Z,9.97
2022-09-13T02:30:40.628Z,9.88
2022-09-13T02:33:13.637Z,9.93
2022-09-13T02:35:53.831Z,9.85
2022-09-13T02:38:28.956Z,9.88
2022-09-13T02:41:20.472Z,9.89
2022-09-13T02:43:52.126Z,9.86
2022-09-13T02:46:28.145Z,9.85
2022-09-13T02:49:08.444Z,9.84
2022-09-13T02:51:55.591Z,9.82
2022-09-13T02:54:34.747Z,9.78
2022-09-13T02:57:18.638Z,9.78
2022-09-13T02:59:48.230Z,9.76
2022-09-13T03:02:26.698Z,9.73
2022-09-13T03:04:54.303Z,9.66
2022-09-13T03:07:21.410Z,9.58
2022-09-13T03:09:58.480Z,9.62
2022-09-13T03:13:13.216Z,9.78
2022-09-13T03:15:40.415Z,9.79
2022-09-13T03:18:41.234Z,9.80
2022-09-13T03:21:45.427Z,9.83
2022-09-13T03:24:36.510Z,9.83
2022-09-13T03:27:20.314Z,9.77
2022-09-13T03:30:04.620Z,9.84
2022-09-13T03:33:01.166Z,9.87
2022-09-13T03:35:49.841Z,9.89
2022-09-13T03:38:27.564Z,9.88
2022-09-13T03:41:07.517Z,9.94
2022-09-13T03:43:40.555Z,9.97
2022-09-13T03:46:13.546Z,10.00
2022-09-13T03:48:44.871Z,9.93
2022-09-13T03:51:12.739Z,10.07
2022-09-13T03:53:50.628Z,10.15
2022-09-13T03:56:22.434Z,10.15
2022-09-13T03:58:49.939Z,10.12
2022-09-13T04:01:21.150Z,10.31
2022-09-13T04:03:49.540Z,10.36
2022-09-13T04:06:19.066Z,10.33
2022-09-13T04:08:46.117Z,10.38
2022-09-13T04:11:13.312Z,10.37
2022-09-13T04:13:41.817Z,10.40
2022-09-13T04:16:11.290Z,10.41
2022-09-13T04:18:41.231Z,10.53
2022-09-13T04:21:18.685Z,10.51
2022-09-13T04:23:50.742Z,10.50
2022-09-13T04:26:17.917Z,10.65
2022-09-13T04:28:45.215Z,10.72
2022-09-13T04:31:13.935Z,10.74
2022-09-13T04:33:43.941Z,10.91
2022-09-13T04:36:13.759Z,11.01
2022-09-13T04:39:37.749Z,11.10
2022-09-13T04:42:05.519Z,11.02
2022-09-13T04:44:33.140Z,11.06
2022-09-13T04:47:00.601Z,10.99
2022-09-13T04:49:27.801Z,11.14
2022-09-13T04:51:54.915Z,11.21
2022-09-13T04:54:25.120Z,11.06
2022-09-13T04:56:58.133Z,11.32
2022-09-13T04:59:25.283Z,11.31
2022-09-13T05:01:52.775Z,11.39
2022-09-13T05:04:24.800Z,11.44
2022-09-13T05:06:55.326Z,11.30
2022-09-13T05:09:22.619Z,11.49
2022-09-13T05:11:49.919Z,11.42
2022-09-13T05:14:25.488Z,11.40
2022-09-13T05:17:16.587Z,11.34
2022-09-13T05:19:51.361Z,11.38
2022-09-13T05:22:21.382Z,11.32
2022-09-13T05:24:55.965Z,11.37
2022-09-13T05:27:25.825Z,11.54
2022-09-13T05:29:54.423Z,11.49
2022-09-13T05:32:21.368Z,11.52
2022-09-13T05:34:48.957Z,11.53
2022-09-13T05:37:18.794Z,11.56
2022-09-13T05:40:09.842Z,11.53
2022-09-13T05:42:32.841Z,11.54
2022-09-13T05:44:59.809Z,11.55
2022-09-13T05:47:26.881Z,11.54
2022-09-13T05:50:10.815Z,11.55
2022-09-13T05:52:39.044Z,11.55
2022-09-13T05:55:06.336Z,11.56
2022-09-13T05:57:33.426Z,11.53
2022-09-13T06:00:00.522Z,11.59
2022-09-13T06:02:27.576Z,11.63
2022-09-13T06:04:54.672Z,11.68
2022-09-13T06:07:21.569Z,11.76
2022-09-13T06:09:49.896Z,11.83
2022-09-13T06:12:16.839Z,11.88
2022-09-13T06:14:43.829Z,11.92
2022-09-13T06:17:10.929Z,11.98
2022-09-13T06:19:37.914Z,12.03
2022-09-13T06:22:07.646Z,12.13
2022-09-13T06:24:37.652Z,12.19
2022-09-13T06:27:04.938Z,12.29
2022-09-13T06:29:32.232Z,12.44
2022-09-13T06:31:59.273Z,12.49
2022-09-13T06:34:31.144Z,12.57
2022-09-13T06:36:58.836Z,12.60
2022-09-13T06:39:25.827Z,12.63
2022-09-13T06:41:52.921Z,12.64
2022-09-13T06:44:26.515Z,12.66
2022-09-13T06:46:53.502Z,12.65
2022-09-13T06:49:20.514Z,12.60
2022-09-13T06:51:47.830Z,12.67
2022-09-13T06:54:22.279Z,12.63
2022-09-13T06:56:50.640Z,12.66
2022-09-13T06:59:17.675Z,12.57
2022-09-13T07:01:45.104Z,12.62
2022-09-13T07:04:17.532Z,12.65
2022-09-13T07:06:47.841Z,12.69
2022-09-13T07:09:23.781Z,12.78
2022-09-13T07:11:53.648Z,12.81
2022-09-13T07:14:26.894Z,12.90
2022-09-13T07:16:55.026Z,12.92
2022-09-13T07:19:26.489Z,13.00
2022-09-13T07:21:55.259Z,13.02
2022-09-13T07:24:22.790Z,13.13
2022-09-13T07:26:50.827Z,13.23
2022-09-13T07:29:22.849Z,13.38
2022-09-13T07:31:55.089Z,13.52
2022-09-13T07:34:24.391Z,13.60
2022-09-13T07:36:52.666Z,13.70
2022-09-13T07:39:23.061Z,13.75
2022-09-13T07:41:54.034Z,13.73
2022-09-13T07:44:21.241Z,13.99
2022-09-13T07:46:48.290Z,14.16
2022-09-13T07:49:18.350Z,14.28
2022-09-13T07:51:45.813Z,14.32
2022-09-13T07:54:15.563Z,14.25
2022-09-13T07:56:42.918Z,14.32
2022-09-13T07:59:17.644Z,14.41
2022-09-13T08:01:47.522Z,14.41
2022-09-13T08:04:21.329Z,14.54
2022-09-13T08:06:48.635Z,14.63
2022-09-13T08:09:16.468Z,14.62
2022-09-13T08:11:45.978Z,14.60
2022-09-13T08:14:15.666Z,14.59
2022-09-13T08:16:43.276Z,14.59
2022-09-13T08:19:16.612Z,14.62
2022-09-13T08:21:44.515Z,14.56
2022-09-13T08:24:21.406Z,14.60
2022-09-13T08:26:49.608Z,14.63
2022-09-13T08:29:25.607Z,14.66
2022-09-13T08:31:55.691Z,14.78
2022-09-13T08:34:22.641Z,14.84
2022-09-13T08:36:49.630Z,14.63
2022-09-13T08:39:19.894Z,14.80
2022-09-13T08:42:08.069Z,14.85
2022-09-13T08:44:42.833Z,14.90
2022-09-13T08:47:32.033Z,15.09
2022-09-13T08:50:13.034Z,15.20
2022-09-13T08:53:12.376Z,15.42
2022-09-13T08:56:08.621Z,15.46
2022-09-13T08:59:01.874Z,15.46
2022-09-13T09:01:56.906Z,15.58
2022-09-13T09:04:27.181Z,15.62
2022-09-13T09:07:10.167Z,15.59
2022-09-13T09:09:52.244Z,15.57
2022-09-13T09:12:50.326Z,15.55
2022-09-13T09:15:43.494Z,15.39
2022-09-13T09:18:32.970Z,15.30
2022-09-13T09:21:01.912Z,15.28
2022-09-13T09:23:54.452Z,15.30
2022-09-13T09:26:31.593Z,15.28
2022-09-13T09:29:24.682Z,15.34
2022-09-13T09:32:28.713Z,15.40
2022-09-13T09:35:34.437Z,15.55
2022-09-13T09:38:28.261Z,15.59
2022-09-13T09:40:55.398Z,15.66
2022-09-13T09:43:39.164Z,15.67
2022-09-13T09:46:07.424Z,15.80
2022-09-13T09:48:46.147Z,15.85
2022-09-13T09:51:18.098Z,15.94
2022-09-13T09:53:48.777Z,16.02
2022-09-13T09:56:29.022Z,16.06
2022-09-13T09:58:56.105Z,16.10
2022-09-13T10:01:30.915Z,16.13
2022-09-13T10:04:10.786Z,16.21
2022-09-13T10:06:49.949Z,16.19
2022-09-13T10:09:21.976Z,16.17
2022-09-13T10:11:59.262Z,16.11
2022-09-13T10:14:45.002Z,16.04
2022-09-13T10:17:27.722Z,15.97
2022-09-13T10:20:26.848Z,15.98
2022-09-13T10:23:15.455Z,15.94
2022-09-13T10:25:47.829Z,15.90
2022-09-13T10:28:19.269Z,15.88
2022-09-13T10:30:56.554Z,15.85
2022-09-13T10:33:36.840Z,15.76
2022-09-13T10:36:50.577Z,15.70
2022-09-13T10:39:18.935Z,15.60
2022-09-13T10:41:58.381Z,15.52
2022-09-13T10:44:43.370Z,15.42
2022-09-13T10:47:23.587Z,15.30
2022-09-13T10:49:53.945Z,15.17
2022-09-13T10:52:24.184Z,15.19
2022-09-13T10:54:51.473Z,15.13
2022-09-13T10:57:34.648Z,15.13
2022-09-13T11:00:11.401Z,15.03
2022-09-13T11:02:46.983Z,15.04
2022-09-13T11:05:30.273Z,15.02
2022-09-13T11:08:38.759Z,14.99
2022-09-13T11:11:14.686Z,14.94
2022-09-13T11:14:09.994Z,14.95
2022-09-13T11:16:58.159Z,14.94
2022-09-13T11:19:33.948Z,14.91
2022-09-13T11:22:06.838Z,14.87
2022-09-13T11:24:34.202Z,14.85
2022-09-13T11:27:09.810Z,14.83
2022-09-13T11:30:07.423Z,14.87
2022-09-13T11:33:01.527Z,14.86
2022-09-13T11:35:36.469Z,14.94
2022-09-13T11:38:22.050Z,14.92
2022-09-13T11:41:06.106Z,14.87
2022-09-13T11:43:48.679Z,14.82
2022-09-13T11:46:22.425Z,14.90
2022-09-13T11:49:06.599Z,14.72
2022-09-13T11:52:07.525Z,14.77
2022-09-13T11:54:46.141Z,14.68
2022-09-13T11:57:20.155Z,14.54
2022-09-13T11:59:55.758Z,14.60
2022-09-13T12:02:50.287Z,14.67
2022-09-13T12:05:24.397Z,14.51
2022-09-13T12:08:01.280Z,14.73
2022-09-13T12:10:34.671Z,14.68
2022-09-13T12:13:04.706Z,14.51
2022-09-13T12:15:41.658Z,14.47
2022-09-13T12:18:22.929Z,14.47
2022-09-13T12:21:10.385Z,14.51
2022-09-13T12:23:51.073Z,14.68
2022-09-13T12:26:31.547Z,14.56
2022-09-13T12:29:09.726Z,14.57
2022-09-13T12:31:39.456Z,14.48
2022-09-13T12:34:12.085Z,14.63
2022-09-13T12:37:04.012Z,14.66
2022-09-13T12:39:34.173Z,14.52
2022-09-13T12:42:18.219Z,14.64
2022-09-13T12:44:45.225Z,14.62
2022-09-13T12:47:18.268Z,14.63
2022-09-13T12:50:01.757Z,14.64
2022-09-13T12:53:24.012Z,14.62
2022-09-13T12:56:12.631Z,14.62
2022-09-13T13:02:43.742Z,14.38
2022-09-13T13:05:39.107Z,14.39
2022-09-13T13:08:55.903Z,14.43
2022-09-13T13:11:41.026Z,14.46
2022-09-13T13:19:33.346Z,14.63
2022-09-13T13:22:37.592Z,14.62
2022-09-13T13:25:30.686Z,14.58
2022-09-13T13:28:00.056Z,14.43
2022-09-13T13:30:42.297Z,14.46
2022-09-13T13:33:27.479Z,14.39
2022-09-13T13:35:56.207Z,14.37
2022-09-13T13:38:34.250Z,14.39
2022-09-13T13:41:34.403Z,14.38
2022-09-13T13:44:22.335Z,14.23
2022-09-13T13:46:55.614Z,14.27
2022-09-13T13:49:31.793Z,14.29
2022-09-13T13:52:11.039Z,14.11
2022-09-13T13:54:59.770Z,14.29
2022-09-13T13:57:50.495Z,14.26
2022-09-13T14:00:24.854Z,14.21
2022-09-13T14:02:54.511Z,14.33
2022-09-13T14:05:32.826Z,14.35
2022-09-13T14:08:29.806Z,14.38
2022-09-13T14:11:19.089Z,14.37
2022-09-13T14:13:49.156Z,14.44
2022-09-13T14:16:48.288Z,14.47
2022-09-13T14:19:23.203Z,14.27
2022-09-13T14:22:15.460Z,14.51
2022-09-13T14:24:53.928Z,14.45
2022-09-13T14:27:30.489Z,14.32
2022-09-13T14:30:05.379Z,14.34
2022-09-13T14:32:47.457Z,14.37
2022-09-13T14:35:34.761Z,14.35
2022-09-13T14:38:33.744Z,14.43
2022-09-13T14:41:15.068Z,14.39
2022-09-13T14:43:43.694Z,14.35
2022-09-13T14:46:19.829Z,14.30
2022-09-13T14:48:52.648Z,14.29
2022-09-13T14:51:33.336Z,14.27
2022-09-13T14:54:10.655Z,14.20
2022-09-13T14:56:47.321Z,14.22
2022-09-13T14:59:48.428Z,14.15
2022-09-13T15:02:42.733Z,14.18
2022-09-13T15:05:24.275Z,13.91
2022-09-13T15:07:58.231Z,13.85
2022-09-13T15:10:32.344Z,13.93
2022-09-13T15:13:10.132Z,13.82
2022-09-13T15:15:45.429Z,13.92
2022-09-13T15:18:21.451Z,13.97
2022-09-13T15:21:18.268Z,13.90
2022-09-13T15:23:51.624Z,13.69
2022-09-13T15:26:24.135Z,13.61
2022-09-13T15:28:53.898Z,13.79
2022-09-13T15:31:32.010Z,13.72
2022-09-13T15:34:26.658Z,13.69
2022-09-13T15:37:10.900Z,13.71
2022-09-13T15:40:16.041Z,13.70
2022-09-13T15:42:47.744Z,13.65
2022-09-13T15:45:15.268Z,13.61
2022-09-13T15:47:47.422Z,13.56
2022-09-13T15:50:27.605Z,13.55
2022-09-13T15:53:11.951Z,13.52
2022-09-13T15:55:40.642Z,13.41
2022-09-13T15:58:16.772Z,13.43
2022-09-13T16:01:01.721Z,13.17
2022-09-13T16:07:30.020Z,13.14
2022-09-13T16:10:01.726Z,13.15
2022-09-13T16:12:37.332Z,13.13
2022-09-13T16:15:11.396Z,13.01
2022-09-13T16:17:42.316Z,12.89
2022-09-13T16:20:20.760Z,13.00
2022-09-13T16:22:48.332Z,12.85
2022-09-13T16:25:16.158Z,12.69
2022-09-13T16:27:44.925Z,12.73
2022-09-13T16:30:17.597Z,12.66
2022-09-13T16:32:45.128Z,12.63
2022-09-13T16:35:17.229Z,12.60
2022-09-13T16:37:45.453Z,12.65
2022-09-13T16:40:22.032Z,12.46
2022-09-13T16:42:49.740Z,12.50
2022-09-13T16:45:23.260Z,12.50
2022-09-13T16:47:53.583Z,12.28
2022-09-13T16:50:50.506Z,12.52
2022-09-13T16:53:46.548Z,12.24
2022-09-13T16:56:17.225Z,12.31
2022-09-13T16:59:08.719Z,12.23
2022-09-13T17:01:44.474Z,12.17
2022-09-13T17:04:13.516Z,12.39
2022-09-13T17:06:41.306Z,12.29
2022-09-13T17:09:30.877Z,12.25
2022-09-13T17:12:00.103Z,12.18
2022-09-13T17:14:27.950Z,12.28
2022-09-13T17:16:58.273Z,12.26
2022-09-13T17:19:33.824Z,12.23
2022-09-13T17:22:08.625Z,12.29
2022-09-13T17:24:40.901Z,12.37
2022-09-13T17:30:31.997Z,12.18
2022-09-13T17:33:05.126Z,12.33
2022-09-13T17:35:33.112Z,12.35
2022-09-13T17:38:09.706Z,12.14
2022-09-13T17:40:51.804Z,12.26
2022-09-13T17:48:03.113Z,12.09
2022-09-13T17:51:00.335Z,11.97
2022-09-13T17:57:15.878Z,11.90
2022-09-13T17:59:56.332Z,11.88
2022-09-13T18:03:17.558Z,12.07
2022-09-13T18:14:46.442Z,11.63
2022-09-13T18:17:16.891Z,11.86
2022-09-13T18:20:03.697Z,11.78
2022-09-13T18:22:34.167Z,11.57
2022-09-13T18:25:06.003Z,11.67
2022-09-13T18:27:56.129Z,11.55
2022-09-13T18:34:27.804Z,11.48
2022-09-13T18:37:41.268Z,11.60
2022-09-13T18:40:21.320Z,11.36
2022-09-13T18:43:12.518Z,11.39
2022-09-13T18:49:53.142Z,11.35
2022-09-13T18:52:30.504Z,11.30
2022-09-13T18:54:57.816Z,11.31
2022-09-13T18:57:26.583Z,11.33
2022-09-13T19:00:01.168Z,11.25
2022-09-13T19:02:34.473Z,11.17
2022-09-13T19:05:04.300Z,11.19
2022-09-13T19:07:34.124Z,11.29
2022-09-13T19:10:28.789Z,11.37
2022-09-13T19:12:56.135Z,11.10
2022-09-13T19:15:26.577Z,11.29
2022-09-13T19:17:53.890Z,11.13
2022-09-13T19:20:22.917Z,11.32
2022-09-13T19:23:03.439Z,11.21
2022-09-13T19:25:30.760Z,11.35
2022-09-13T19:28:00.679Z,11.13
2022-09-13T19:30:27.974Z,11.17
2022-09-13T19:32:57.565Z,11.35
2022-09-13T19:35:24.765Z,11.21
2022-09-13T19:37:58.017Z,11.17
2022-09-13T19:40:34.191Z,11.30
2022-09-13T19:54:18.923Z,11.35
2022-09-13T19:57:23.565Z,11.25
2022-09-13T19:59:52.975Z,11.20
2022-09-13T20:02:25.226Z,11.37
2022-09-13T20:04:53.368Z,11.21
2022-09-13T20:07:36.906Z,11.38
2022-09-13T20:10:04.434Z,11.27
2022-09-13T20:12:39.714Z,11.17
2022-09-13T20:15:10.825Z,11.25
2022-09-13T20:17:39.462Z,11.28
2022-09-13T20:20:19.078Z,11.37
2022-09-13T20:23:00.095Z,11.10
2022-09-13T20:25:30.700Z,11.10
2022-09-13T20:28:15.365Z,11.06
2022-09-13T20:30:56.275Z,11.05
2022-09-13T20:33:24.030Z,10.98
2022-09-13T20:35:54.859Z,10.99
2022-09-13T20:38:33.969Z,11.08
2022-09-13T20:41:20.068Z,10.99
2022-09-13T20:43:51.377Z,10.95
2022-09-13T20:46:24.579Z,10.81
2022-09-13T20:48:53.770Z,10.88
2022-09-13T20:51:25.566Z,10.76
2022-09-13T20:54:00.811Z,10.74
2022-09-13T20:56:29.463Z,10.81
2022-09-13T20:59:00.754Z,10.53
2022-09-13T21:01:31.843Z,10.70
2022-09-13T21:04:01.450Z,10.80
2022-09-13T21:06:31.084Z,10.74
2022-09-13T21:09:00.265Z,10.66
2022-09-13T21:11:33.589Z,10.70
2022-09-13T21:14:06.528Z,10.72
2022-09-13T21:16:36.748Z,10.55
2022-09-13T21:19:04.133Z,10.69
2022-09-13T21:21:34.685Z,10.58
2022-09-13T21:24:06.030Z,10.63
2022-09-13T21:26:33.347Z,10.69
2022-09-13T21:29:00.908Z,10.64
2022-09-13T21:31:30.252Z,10.65
2022-09-13T21:34:04.186Z,10.69
2022-09-13T21:36:34.768Z,10.67
2022-09-13T21:39:02.376Z,10.63
2022-09-13T21:41:29.762Z,10.66
2022-09-13T21:43:56.960Z,10.62
2022-09-13T21:46:26.636Z,10.62
2022-09-13T21:49:00.739Z,10.66
2022-09-13T21:51:42.089Z,10.68
2022-09-13T21:54:16.121Z,10.64
2022-09-13T21:56:45.374Z,10.69
2022-09-13T21:59:15.812Z,10.66
2022-09-13T22:01:46.943Z,10.72
2022-09-13T22:04:20.217Z,10.70
2022-09-13T22:06:51.680Z,10.50
2022-09-13T22:09:19.539Z,10.63
2022-09-13T22:11:49.627Z,10.67
2022-09-13T22:14:18.788Z,10.67
2022-09-13T22:16:49.438Z,10.64
2022-09-13T22:19:26.176Z,10.61
2022-09-13T22:21:56.272Z,10.62
2022-09-13T22:24:25.389Z,10.62
2022-09-13T22:26:56.555Z,10.61
2022-09-13T22:29:24.243Z,10.62
2022-09-13T22:31:56.703Z,10.55
2022-09-13T22:34:25.429Z,10.62
2022-09-13T22:36:55.359Z,10.62
2022-09-13T22:39:22.947Z,10.62
2022-09-13T22:41:50.103Z,10.54
2022-09-13T22:44:17.155Z,10.54
2022-09-13T22:46:45.701Z,10.59
2022-09-13T22:49:14.908Z,10.60
2022-09-13T22:51:45.166Z,10.57
2022-09-13T22:54:13.853Z,10.61
2022-09-13T22:56:41.452Z,10.63
2022-09-13T22:59:12.680Z,10.55
2022-09-13T23:01:41.932Z,10.60
2022-09-13T23:04:09.465Z,10.61
2022-09-13T23:06:36.728Z,10.57
2022-09-13T23:09:06.831Z,10.62
2022-09-13T23:11:40.832Z,10.62
2022-09-13T23:14:13.332Z,10.63
2022-09-13T23:16:51.878Z,10.66
2022-09-13T23:19:22.129Z,10.55
2022-09-13T23:21:49.285Z,10.67
2022-09-13T23:24:18.472Z,10.64
2022-09-13T23:26:46.903Z,10.64
2022-09-13T23:29:16.830Z,10.67
2022-09-13T23:31:44.489Z,10.64
2022-09-13T23:34:12.204Z,10.67
2022-09-13T23:36:41.596Z,10.71
2022-09-13T23:39:13.199Z,10.71
2022-09-13T23:41:40.944Z,10.74
2022-09-13T23:44:07.944Z,10.71
2022-09-13T23:46:35.356Z,10.71
2022-09-13T23:49:04.926Z,10.76
2022-09-13T23:51:32.141Z,10.67
2022-09-13T23:54:01.080Z,10.76
2022-09-13T23:56:30.924Z,10.75
2022-09-13T23:58:59.828Z,10.74
